sensor_id;sensor_type;location;lat;lon;timestamp;pressure;altitude;pressure_sealevel;temperature;humidity
41202;BME280;26936;50.524;8.684;2023-02-04T00:00:09;100637.00;;;7.10;90.79
41202;BME280;26936;50.524;8.684;2023-02-04T00:02:36;100633.78;;;7.12;90.53
41202;BME280;26936;50.524;8.684;2023-02-04T00:05:02;100635.00;;;7.14;90.46
41202;BME280;26936;50.524;8.684;2023-02-04T00:07:28;100636.59;;;7.15;89.77
41202;BME280;26936;50.524;8.684;2023-02-04T00:09:53;100646.19;;;7.07;89.79
41202;BME280;26936;50.524;8.684;2023-02-04T00:12:18;100652.59;;;7.08;90.36
41202;BME280;26936;50.524;8.684;2023-02-04T00:14:43;100649.81;;;7.08;90.86
41202;BME280;26936;50.524;8.684;2023-02-04T00:17:09;100650.19;;;7.03;90.69
41202;BME280;26936;50.524;8.684;2023-02-04T00:19:35;100637.00;;;7.14;89.64
41202;BME280;26936;50.524;8.684;2023-02-04T00:22:01;100656.59;;;7.10;90.01
41202;BME280;26936;50.524;8.684;2023-02-04T00:24:27;100653.00;;;7.06;90.73
41202;BME280;26936;50.524;8.684;2023-02-04T00:26:53;100648.59;;;6.98;91.23
41202;BME280;26936;50.524;8.684;2023-02-04T00:29:18;100646.19;;;6.89;90.97
41202;BME280;26936;50.524;8.684;2023-02-04T00:31:43;100654.56;;;6.82;91.23
41202;BME280;26936;50.524;8.684;2023-02-04T00:34:08;100660.16;;;6.86;91.05
41202;BME280;26936;50.524;8.684;2023-02-04T00:36:34;100667.75;;;6.85;91.24
41202;BME280;26936;50.524;8.684;2023-02-04T00:38:59;100674.19;;;6.93;90.70
41202;BME280;26936;50.524;8.684;2023-02-04T00:41:24;100676.97;;;6.89;90.68
41202;BME280;26936;50.524;8.684;2023-02-04T00:43:49;100679.78;;;6.86;90.63
41202;BME280;26936;50.524;8.684;2023-02-04T00:46:15;100680.19;;;6.88;90.18
41202;BME280;26936;50.524;8.684;2023-02-04T00:48:40;100677.78;;;6.97;90.02
41202;BME280;26936;50.524;8.684;2023-02-04T00:51:05;100678.97;;;6.89;89.97
41202;BME280;26936;50.524;8.684;2023-02-04T00:53:30;100663.34;;;6.70;90.31
41202;BME280;26936;50.524;8.684;2023-02-04T00:55:56;100658.16;;;6.76;90.03
41202;BME280;26936;50.524;8.684;2023-02-04T00:58:21;100666.13;;;6.67;90.51
41202;BME280;26936;50.524;8.684;2023-02-04T01:00:46;100669.31;;;6.62;90.61
41202;BME280;26936;50.524;8.684;2023-02-04T01:03:11;100678.91;;;6.64;90.09
41202;BME280;26936;50.524;8.684;2023-02-04T01:05:37;100682.53;;;6.65;89.19
41202;BME280;26936;50.524;8.684;2023-02-04T01:08:02;100690.91;;;6.61;87.92
41202;BME280;26936;50.524;8.684;2023-02-04T01:10:27;100698.88;;;6.59;87.81
41202;BME280;26936;50.524;8.684;2023-02-04T01:12:53;100687.69;;;6.59;86.63
41202;BME280;26936;50.524;8.684;2023-02-04T01:15:18;100686.91;;;6.62;86.43
41202;BME280;26936;50.524;8.684;2023-02-04T01:17:43;100685.69;;;6.60;85.66
41202;BME280;26936;50.524;8.684;2023-02-04T01:20:09;100689.31;;;6.60;85.48
41202;BME280;26936;50.524;8.684;2023-02-04T01:22:35;100686.84;;;6.48;84.66
41202;BME280;26936;50.524;8.684;2023-02-04T01:25:00;100706.03;;;6.46;84.51
41202;BME280;26936;50.524;8.684;2023-02-04T01:27:25;100701.22;;;6.43;84.91
41202;BME280;26936;50.524;8.684;2023-02-04T01:29:51;100708.81;;;6.39;85.96
41202;BME280;26936;50.524;8.684;2023-02-04T01:32:17;100702.38;;;6.35;86.88
41202;BME280;26936;50.524;8.684;2023-02-04T01:34:42;100702.34;;;6.28;87.55
41202;BME280;26936;50.524;8.684;2023-02-04T01:37:07;100709.53;;;6.26;88.09
41202;BME280;26936;50.524;8.684;2023-02-04T01:39:32;100705.91;;;6.18;87.61
41202;BME280;26936;50.524;8.684;2023-02-04T01:41:58;100721.88;;;6.18;86.94
41202;BME280;26936;50.524;8.684;2023-02-04T01:44:25;100723.03;;;6.06;87.56
41202;BME280;26936;50.524;8.684;2023-02-04T01:46:50;100727.78;;;6.02;86.92
41202;BME280;26936;50.524;8.684;2023-02-04T01:49:16;100731.31;;;5.96;87.63
41202;BME280;26936;50.524;8.684;2023-02-04T01:51:42;100748.53;;;5.98;87.02
41202;BME280;26936;50.524;8.684;2023-02-04T01:54:10;100742.88;;;5.91;87.55
41202;BME280;26936;50.524;8.684;2023-02-04T01:56:35;100742.56;;;6.03;86.73
41202;BME280;26936;50.524;8.684;2023-02-04T01:59:01;100750.88;;;5.89;87.57
41202;BME280;26936;50.524;8.684;2023-02-04T02:04:13;100759.28;;;5.96;87.24
41202;BME280;26936;50.524;8.684;2023-02-04T02:06:42;100762.09;;;5.96;87.34
41202;BME280;26936;50.524;8.684;2023-02-04T02:09:08;100759.66;;;5.91;87.40
41202;BME280;26936;50.524;8.684;2023-02-04T02:11:34;100764.50;;;5.94;87.50
41202;BME280;26936;50.524;8.684;2023-02-04T02:13:59;100762.88;;;5.93;88.12
41202;BME280;26936;50.524;8.684;2023-02-04T02:16:25;100757.25;;;5.86;88.30
41202;BME280;26936;50.524;8.684;2023-02-04T02:18:50;100762.34;;;5.80;88.78
41202;BME280;26936;50.524;8.684;2023-02-04T02:21:23;100767.13;;;5.80;89.34
41202;BME280;26936;50.524;8.684;2023-02-04T02:23:54;100766.38;;;5.83;90.07
41202;BME280;26936;50.524;8.684;2023-02-04T02:26:25;100764.31;;;5.76;90.45
41202;BME280;26936;50.524;8.684;2023-02-04T02:28:50;100773.81;;;5.68;91.65
41202;BME280;26936;50.524;8.684;2023-02-04T02:31:18;100773.84;;;5.72;91.19
41202;BME280;26936;50.524;8.684;2023-02-04T02:33:44;100781.38;;;5.64;91.87
41202;BME280;26936;50.524;8.684;2023-02-04T02:36:10;100787.38;;;5.63;91.74
41202;BME280;26936;50.524;8.684;2023-02-04T02:38:36;100786.91;;;5.57;91.87
41202;BME280;26936;50.524;8.684;2023-02-04T02:41:03;100793.31;;;5.57;92.08
41202;BME280;26936;50.524;8.684;2023-02-04T02:43:28;100800.50;;;5.58;92.47
41202;BME280;26936;50.524;8.684;2023-02-04T02:45:57;100803.25;;;5.55;92.87
41202;BME280;26936;50.524;8.684;2023-02-04T02:48:23;100813.22;;;5.52;92.54
41202;BME280;26936;50.524;8.684;2023-02-04T02:50:49;100811.19;;;5.49;93.03
41202;BME280;26936;50.524;8.684;2023-02-04T02:53:16;100815.16;;;5.48;92.95
41202;BME280;26936;50.524;8.684;2023-02-04T02:55:42;100816.38;;;5.47;92.91
41202;BME280;26936;50.524;8.684;2023-02-04T02:58:25;100810.34;;;5.45;93.26
41202;BME280;26936;50.524;8.684;2023-02-04T03:00:52;100808.31;;;5.42;93.28
41202;BME280;26936;50.524;8.684;2023-02-04T03:03:25;100814.72;;;5.43;93.39
41202;BME280;26936;50.524;8.684;2023-02-04T03:05:55;100819.47;;;5.39;93.70
41202;BME280;26936;50.524;8.684;2023-02-04T03:08:22;100812.22;;;5.34;93.89
41202;BME280;26936;50.524;8.684;2023-02-04T03:10:48;100824.56;;;5.30;94.17
41202;BME280;26936;50.524;8.684;2023-02-04T03:13:14;100828.47;;;5.25;93.69
41202;BME280;26936;50.524;8.684;2023-02-04T03:15:42;100823.63;;;5.19;93.94
41202;BME280;26936;50.524;8.684;2023-02-04T03:18:08;100824.00;;;5.17;94.84
41202;BME280;26936;50.524;8.684;2023-02-04T03:20:33;100826.03;;;5.17;95.02
41202;BME280;26936;50.524;8.684;2023-02-04T03:22:59;100831.13;;;5.11;94.74
41202;BME280;26936;50.524;8.684;2023-02-04T03:25:25;100832.28;;;5.07;95.10
41202;BME280;26936;50.524;8.684;2023-02-04T03:27:54;100833.44;;;5.06;94.90
41202;BME280;26936;50.524;8.684;2023-02-04T03:30:21;100842.13;;;4.97;94.63
41202;BME280;26936;50.524;8.684;2023-02-04T03:32:47;100845.66;;;4.94;95.10
41202;BME280;26936;50.524;8.684;2023-02-04T03:35:12;100847.56;;;4.87;95.42
41202;BME280;26936;50.524;8.684;2023-02-04T03:37:37;100848.28;;;4.80;95.85
41202;BME280;26936;50.524;8.684;2023-02-04T03:40:04;100856.56;;;4.73;96.07
41202;BME280;26936;50.524;8.684;2023-02-04T03:42:29;100854.56;;;4.74;96.33
41202;BME280;26936;50.524;8.684;2023-02-04T03:44:54;100856.94;;;4.72;96.13
41202;BME280;26936;50.524;8.684;2023-02-04T03:47:20;100862.47;;;4.68;96.62
41202;BME280;26936;50.524;8.684;2023-02-04T03:49:45;100860.50;;;4.69;96.36
41202;BME280;26936;50.524;8.684;2023-02-04T03:52:10;100866.00;;;4.65;97.18
41202;BME280;26936;50.524;8.684;2023-02-04T03:54:35;100876.41;;;4.65;97.43
41202;BME280;26936;50.524;8.684;2023-02-04T03:57:01;100881.91;;;4.61;98.07
41202;BME280;26936;50.524;8.684;2023-02-04T03:59:26;100879.13;;;4.61;99.00
41202;BME280;26936;50.524;8.684;2023-02-04T04:01:51;100873.97;;;4.63;99.35
41202;BME280;26936;50.524;8.684;2023-02-04T04:04:17;100877.22;;;4.69;99.48
41202;BME280;26936;50.524;8.684;2023-02-04T04:06:42;100884.00;;;4.68;100.00
41202;BME280;26936;50.524;8.684;2023-02-04T04:09:08;100882.81;;;4.69;100.00
41202;BME280;26936;50.524;8.684;2023-02-04T04:11:33;100876.06;;;4.70;100.00
41202;BME280;26936;50.524;8.684;2023-02-04T04:13:58;100879.25;;;4.72;100.00
41202;BME280;26936;50.524;8.684;2023-02-04T04:16:25;100877.34;;;4.76;100.00
41202;BME280;26936;50.524;8.684;2023-02-04T04:18:50;100877.00;;;4.81;100.00
41202;BME280;26936;50.524;8.684;2023-02-04T04:21:15;100879.00;;;4.80;100.00
41202;BME280;26936;50.524;8.684;2023-02-04T04:23:41;100885.44;;;4.84;100.00
41202;BME280;26936;50.524;8.684;2023-02-04T04:26:06;100890.72;;;4.93;100.00
41202;BME280;26936;50.524;8.684;2023-02-04T04:28:31;100887.59;;;4.98;100.00
41202;BME280;26936;50.524;8.684;2023-02-04T04:30:56;100884.41;;;4.99;100.00
41202;BME280;26936;50.524;8.684;2023-02-04T04:33:22;100886.50;;;5.06;100.00
41202;BME280;26936;50.524;8.684;2023-02-04T04:35:47;100892.94;;;5.10;99.92
41202;BME280;26936;50.524;8.684;2023-02-04T04:38:12;100893.81;;;5.14;99.69
41202;BME280;26936;50.524;8.684;2023-02-04T04:40:37;100904.22;;;5.17;99.66
41202;BME280;26936;50.524;8.684;2023-02-04T04:43:03;100905.38;;;5.16;100.00
41202;BME280;26936;50.524;8.684;2023-02-04T04:45:28;100911.03;;;5.19;99.57
41202;BME280;26936;50.524;8.684;2023-02-04T04:47:53;100925.47;;;5.25;99.41
41202;BME280;26936;50.524;8.684;2023-02-04T04:50:19;100924.69;;;5.28;98.69
41202;BME280;26936;50.524;8.684;2023-02-04T04:52:44;100932.75;;;5.33;98.48
41202;BME280;26936;50.524;8.684;2023-02-04T04:55:09;100930.78;;;5.37;98.07
41202;BME280;26936;50.524;8.684;2023-02-04T04:57:35;100925.25;;;5.40;98.03
41202;BME280;26936;50.524;8.684;2023-02-04T05:00:00;100926.88;;;5.41;98.27
41202;BME280;26936;50.524;8.684;2023-02-04T05:02:25;100930.13;;;5.47;97.85
41202;BME280;26936;50.524;8.684;2023-02-04T05:04:50;100929.34;;;5.50;97.76
41202;BME280;26936;50.524;8.684;2023-02-04T05:07:16;100940.19;;;5.55;97.24
41202;BME280;26936;50.524;8.684;2023-02-04T05:09:41;100939.81;;;5.56;97.82
41202;BME280;26936;50.524;8.684;2023-02-04T05:12:06;100948.22;;;5.60;97.48
41202;BME280;26936;50.524;8.684;2023-02-04T05:14:32;100938.31;;;5.63;97.48
41202;BME280;26936;50.524;8.684;2023-02-04T05:16:57;100943.50;;;5.64;97.55
41202;BME280;26936;50.524;8.684;2023-02-04T05:19:22;100947.91;;;5.65;98.10
41202;BME280;26936;50.524;8.684;2023-02-04T05:21:47;100948.75;;;5.69;98.20
41202;BME280;26936;50.524;8.684;2023-02-04T05:24:13;100951.94;;;5.68;98.18
41202;BME280;26936;50.524;8.684;2023-02-04T05:26:38;100960.72;;;5.70;98.64
41202;BME280;26936;50.524;8.684;2023-02-04T05:29:03;100962.72;;;5.69;98.60
41202;BME280;26936;50.524;8.684;2023-02-04T05:31:29;100963.13;;;5.71;98.26
41202;BME280;26936;50.524;8.684;2023-02-04T05:33:54;100965.56;;;5.73;97.98
41202;BME280;26936;50.524;8.684;2023-02-04T05:36:20;100970.78;;;5.74;98.35
41202;BME280;26936;50.524;8.684;2023-02-04T05:38:45;100965.19;;;5.74;98.68
41202;BME280;26936;50.524;8.684;2023-02-04T05:41:11;100966.75;;;5.72;99.22
41202;BME280;26936;50.524;8.684;2023-02-04T05:43:36;100971.94;;;5.73;100.00
41202;BME280;26936;50.524;8.684;2023-02-04T05:46:02;100972.75;;;5.74;100.00
41202;BME280;26936;50.524;8.684;2023-02-04T05:48:27;100980.28;;;5.66;100.00
41202;BME280;26936;50.524;8.684;2023-02-04T05:50:52;100974.25;;;5.64;100.00
41202;BME280;26936;50.524;8.684;2023-02-04T05:53:17;100979.06;;;5.67;100.00
41202;BME280;26936;50.524;8.684;2023-02-04T05:55:43;100993.47;;;5.69;100.00
41202;BME280;26936;50.524;8.684;2023-02-04T05:58:08;100997.03;;;5.66;100.00
41202;BME280;26936;50.524;8.684;2023-02-04T06:00:33;100996.28;;;5.69;100.00
41202;BME280;26936;50.524;8.684;2023-02-04T06:02:59;101000.63;;;5.67;100.00
41202;BME280;26936;50.524;8.684;2023-02-04T06:05:24;101010.94;;;5.59;100.00
41202;BME280;26936;50.524;8.684;2023-02-04T06:07:49;101008.97;;;5.63;100.00
41202;BME280;26936;50.524;8.684;2023-02-04T06:10:15;101012.97;;;5.62;100.00
41202;BME280;26936;50.524;8.684;2023-02-04T06:12:40;101008.94;;;5.60;100.00
41202;BME280;26936;50.524;8.684;2023-02-04T06:15:06;101019.63;;;5.54;100.00
41202;BME280;26936;50.524;8.684;2023-02-04T06:17:31;101017.59;;;5.51;100.00
41202;BME280;26936;50.524;8.684;2023-02-04T06:19:57;101021.94;;;5.48;100.00
41202;BME280;26936;50.524;8.684;2023-02-04T06:22:22;101024.25;;;5.39;100.00
41202;BME280;26936;50.524;8.684;2023-02-04T06:24:48;101014.59;;;5.37;100.00
41202;BME280;26936;50.524;8.684;2023-02-04T06:27:14;101019.34;;;5.33;100.00
41202;BME280;26936;50.524;8.684;2023-02-04T06:29:47;101014.16;;;5.31;100.00
41202;BME280;26936;50.524;8.684;2023-02-04T06:32:12;101018.53;;;5.32;100.00
41202;BME280;26936;50.524;8.684;2023-02-04T06:34:37;101021.72;;;5.31;100.00
41202;BME280;26936;50.524;8.684;2023-02-04T06:37:03;101025.66;;;5.26;100.00
41202;BME280;26936;50.524;8.684;2023-02-04T06:39:28;101034.03;;;5.26;100.00
41202;BME280;26936;50.524;8.684;2023-02-04T06:41:53;101035.19;;;5.25;100.00
41202;BME280;26936;50.524;8.684;2023-02-04T06:44:18;101028.81;;;5.25;100.00
41202;BME280;26936;50.524;8.684;2023-02-04T06:46:44;101030.44;;;5.26;100.00
41202;BME280;26936;50.524;8.684;2023-02-04T06:49:09;101028.44;;;5.26;100.00
41202;BME280;26936;50.524;8.684;2023-02-04T06:51:34;101030.00;;;5.24;100.00
41202;BME280;26936;50.524;8.684;2023-02-04T06:53:59;101033.53;;;5.21;100.00
41202;BME280;26936;50.524;8.684;2023-02-04T06:56:25;101032.31;;;5.18;100.00
41202;BME280;26936;50.524;8.684;2023-02-04T06:58:53;101034.69;;;5.16;100.00
41202;BME280;26936;50.524;8.684;2023-02-04T07:01:18;101041.47;;;5.15;100.00
41202;BME280;26936;50.524;8.684;2023-02-04T07:03:43;101053.41;;;5.16;100.00
41202;BME280;26936;50.524;8.684;2023-02-04T07:06:08;101058.63;;;5.17;100.00
41202;BME280;26936;50.524;8.684;2023-02-04T07:08:34;101058.63;;;5.17;100.00
41202;BME280;26936;50.524;8.684;2023-02-04T07:10:59;101062.19;;;5.14;100.00
41202;BME280;26936;50.524;8.684;2023-02-04T07:13:24;101071.75;;;5.13;100.00
41202;BME280;26936;50.524;8.684;2023-02-04T07:15:49;101073.72;;;5.13;100.00
41202;BME280;26936;50.524;8.684;2023-02-04T07:18:16;101077.38;;;5.17;100.00
41202;BME280;26936;50.524;8.684;2023-02-04T07:20:42;101071.00;;;5.16;100.00
41202;BME280;26936;50.524;8.684;2023-02-04T07:23:07;101077.38;;;5.17;100.00
41202;BME280;26936;50.524;8.684;2023-02-04T07:25:32;101071.00;;;5.16;100.00
41202;BME280;26936;50.524;8.684;2023-02-04T07:27:57;101088.19;;;5.18;100.00
41202;BME280;26936;50.524;8.684;2023-02-04T07:30:23;101081.72;;;5.14;100.00
41202;BME280;26936;50.524;8.684;2023-02-04T07:32:48;101082.16;;;5.16;100.00
41202;BME280;26936;50.524;8.684;2023-02-04T07:35:13;101094.16;;;5.17;100.00
41202;BME280;26936;50.524;8.684;2023-02-04T07:37:39;101097.72;;;5.17;100.00
41202;BME280;26936;50.524;8.684;2023-02-04T07:40:04;101100.97;;;5.19;100.00
41202;BME280;26936;50.524;8.684;2023-02-04T07:42:30;101109.34;;;5.19;100.00
41202;BME280;26936;50.524;8.684;2023-02-04T07:44:55;101098.59;;;5.21;100.00
41202;BME280;26936;50.524;8.684;2023-02-04T07:47:20;101112.94;;;5.20;100.00
41202;BME280;26936;50.524;8.684;2023-02-04T07:49:45;101112.63;;;5.25;100.00
41202;BME280;26936;50.524;8.684;2023-02-04T07:52:11;101115.09;;;5.30;100.00
41202;BME280;26936;50.524;8.684;2023-02-04T07:54:36;101115.50;;;5.32;100.00
41202;BME280;26936;50.524;8.684;2023-02-04T07:57:01;101121.16;;;5.35;100.00
41202;BME280;26936;50.524;8.684;2023-02-04T07:59:26;101125.59;;;5.36;100.00
41202;BME280;26936;50.524;8.684;2023-02-04T08:01:52;101128.84;;;5.42;100.00
41202;BME280;26936;50.524;8.684;2023-02-04T08:04:17;101135.69;;;5.44;100.00
41202;BME280;26936;50.524;8.684;2023-02-04T08:06:42;101139.25;;;5.45;100.00
41202;BME280;26936;50.524;8.684;2023-02-04T08:09:07;101140.13;;;5.49;100.00
41202;BME280;26936;50.524;8.684;2023-02-04T08:11:33;101138.22;;;5.53;100.00
41202;BME280;26936;50.524;8.684;2023-02-04T08:13:58;101141.47;;;5.58;100.00
41202;BME280;26936;50.524;8.684;2023-02-04T08:16:23;101152.81;;;5.69;100.00
41202;BME280;26936;50.524;8.684;2023-02-04T08:18:48;101134.19;;;5.80;100.00
41202;BME280;26936;50.524;8.684;2023-02-04T08:21:14;101148.78;;;5.93;100.00
41202;BME280;26936;50.524;8.684;2023-02-04T08:23:39;101155.25;;;5.97;100.00
41202;BME280;26936;50.524;8.684;2023-02-04T08:26:08;101161.59;;;5.94;100.00
41202;BME280;26936;50.524;8.684;2023-02-04T08:28:33;101169.81;;;5.83;100.00
41202;BME280;26936;50.524;8.684;2023-02-04T08:30:58;101176.31;;;5.91;100.00
41202;BME280;26936;50.524;8.684;2023-02-04T08:33:23;101180.03;;;5.98;100.00
41202;BME280;26936;50.524;8.684;2023-02-04T08:35:49;101181.75;;;6.06;100.00
41202;BME280;26936;50.524;8.684;2023-02-04T08:38:14;101175.06;;;6.14;100.00
41202;BME280;26936;50.524;8.684;2023-02-04T08:40:39;101183.09;;;6.19;100.00
41202;BME280;26936;50.524;8.684;2023-02-04T08:43:05;101175.91;;;6.18;100.00
41202;BME280;26936;50.524;8.684;2023-02-04T08:45:30;101182.00;;;6.27;100.00
41202;BME280;26936;50.524;8.684;2023-02-04T08:47:55;101172.50;;;6.35;100.00
41202;BME280;26936;50.524;8.684;2023-02-04T08:50:20;101173.09;;;6.51;100.00
41202;BME280;26936;50.524;8.684;2023-02-04T08:52:46;101188.50;;;6.68;100.00
41202;BME280;26936;50.524;8.684;2023-02-04T08:55:11;101188.25;;;6.80;100.00
41202;BME280;26936;50.524;8.684;2023-02-04T08:57:36;101194.72;;;6.87;100.00
41202;BME280;26936;50.524;8.684;2023-02-04T09:00:02;101190.81;;;6.99;100.00
41202;BME280;26936;50.524;8.684;2023-02-04T09:02:28;101189.25;;;7.02;100.00
41202;BME280;26936;50.524;8.684;2023-02-04T09:04:53;101191.69;;;7.07;100.00
41202;BME280;26936;50.524;8.684;2023-02-04T09:07:18;101194.88;;;7.05;100.00
41202;BME280;26936;50.524;8.684;2023-02-04T09:09:43;101198.56;;;7.13;100.00
41202;BME280;26936;50.524;8.684;2023-02-04T09:12:09;101201.81;;;7.18;100.00
41202;BME280;26936;50.524;8.684;2023-02-04T09:14:34;101212.25;;;7.18;98.92
41202;BME280;26936;50.524;8.684;2023-02-04T09:16:59;101210.28;;;7.25;96.11
41202;BME280;26936;50.524;8.684;2023-02-04T09:19:25;101214.13;;;7.50;94.35
41202;BME280;26936;50.524;8.684;2023-02-04T09:21:52;101215.84;;;7.69;92.87
41202;BME280;26936;50.524;8.684;2023-02-04T09:24:17;101229.78;;;8.12;89.81
41202;BME280;26936;50.524;8.684;2023-02-04T09:26:43;101228.47;;;8.61;87.54
41202;BME280;26936;50.524;8.684;2023-02-04T09:29:08;101227.31;;;8.72;85.26
41202;BME280;26936;50.524;8.684;2023-02-04T09:31:33;101232.41;;;8.46;86.42
41202;BME280;26936;50.524;8.684;2023-02-04T09:33:58;101223.66;;;7.96;88.24
41202;BME280;26936;50.524;8.684;2023-02-04T09:36:24;101238.38;;;8.34;84.85
41202;BME280;26936;50.524;8.684;2023-02-04T09:38:52;101235.16;;;8.39;84.59
41202;BME280;26936;50.524;8.684;2023-02-04T09:41:18;101240.59;;;8.82;82.10
41202;BME280;26936;50.524;8.684;2023-02-04T09:43:43;101237.00;;;8.96;79.64
41202;BME280;26936;50.524;8.684;2023-02-04T09:46:28;101251.53;;;9.29;77.46
41202;BME280;26936;50.524;8.684;2023-02-04T09:48:54;101255.53;;;9.21;77.85
41202;BME280;26936;50.524;8.684;2023-02-04T09:51:22;101257.75;;;8.63;79.05
41202;BME280;26936;50.524;8.684;2023-02-04T09:53:50;101269.03;;;8.05;80.38
41202;BME280;26936;50.524;8.684;2023-02-04T09:56:17;101268.78;;;7.74;82.65
41202;BME280;26936;50.524;8.684;2023-02-04T09:58:43;101275.69;;;7.40;84.30
41202;BME280;26936;50.524;8.684;2023-02-04T10:01:17;101274.25;;;7.56;85.16
41202;BME280;26936;50.524;8.684;2023-02-04T10:03:44;101286.16;;;7.46;85.32
41202;BME280;26936;50.524;8.684;2023-02-04T10:06:18;101283.03;;;7.51;84.92
41202;BME280;26936;50.524;8.684;2023-02-04T10:08:45;101279.75;;;7.46;84.46
41202;BME280;26936;50.524;8.684;2023-02-04T10:11:12;101283.53;;;7.64;85.55
41202;BME280;26936;50.524;8.684;2023-02-04T10:13:41;101283.72;;;7.88;84.14
41202;BME280;26936;50.524;8.684;2023-02-04T10:16:16;101275.94;;;8.18;83.16
41202;BME280;26936;50.524;8.684;2023-02-04T10:18:43;101280.59;;;8.55;80.31
41202;BME280;26936;50.524;8.684;2023-02-04T10:21:17;101280.47;;;9.33;75.96
41202;BME280;26936;50.524;8.684;2023-02-04T10:23:50;101284.53;;;10.17;71.43
41202;BME280;26936;50.524;8.684;2023-02-04T10:26:19;101283.66;;;10.55;68.21
41202;BME280;26936;50.524;8.684;2023-02-04T10:28:45;101290.47;;;10.57;67.46
41202;BME280;26936;50.524;8.684;2023-02-04T10:36:28;101285.75;;;9.95;69.71
41202;BME280;26936;50.524;8.684;2023-02-04T10:39:05;101286.88;;;9.30;72.28
41202;BME280;26936;50.524;8.684;2023-02-04T10:41:30;101289.66;;;9.16;74.07
41202;BME280;26936;50.524;8.684;2023-02-04T10:44:05;101295.28;;;9.16;72.96
41202;BME280;26936;50.524;8.684;2023-02-04T10:46:31;101296.19;;;10.22;69.52
41202;BME280;26936;50.524;8.684;2023-02-04T10:48:57;101293.09;;;11.07;68.77
41202;BME280;26936;50.524;8.684;2023-02-04T10:51:23;101290.78;;;11.60;64.43
41202;BME280;26936;50.524;8.684;2023-02-04T10:53:48;101296.00;;;10.92;65.66
41202;BME280;26936;50.524;8.684;2023-02-04T10:56:32;101290.94;;;10.45;67.70
41202;BME280;26936;50.524;8.684;2023-02-04T10:58:57;101291.75;;;10.42;67.78
41202;BME280;26936;50.524;8.684;2023-02-04T11:01:25;101294.00;;;10.89;67.51
41202;BME280;26936;50.524;8.684;2023-02-04T11:03:52;101292.78;;;10.94;68.62
41202;BME280;26936;50.524;8.684;2023-02-04T11:06:22;101287.22;;;10.73;67.14
41202;BME280;26936;50.524;8.684;2023-02-04T11:08:48;101286.47;;;10.58;67.24
41202;BME280;26936;50.524;8.684;2023-02-04T11:11:21;101282.84;;;10.58;67.79
41202;BME280;26936;50.524;8.684;2023-02-04T11:18:55;101284.50;;;10.38;68.28
41202;BME280;26936;50.524;8.684;2023-02-04T11:23:49;101302.25;;;10.17;67.87
41202;BME280;26936;50.524;8.684;2023-02-04T11:26:31;101285.75;;;11.23;65.38
41202;BME280;26936;50.524;8.684;2023-02-04T11:39:27;101289.13;;;11.69;60.49
41202;BME280;26936;50.524;8.684;2023-02-04T11:41:52;101287.00;;;11.80;60.70
41202;BME280;26936;50.524;8.684;2023-02-04T11:44:18;101286.19;;;11.83;62.32
41202;BME280;26936;50.524;8.684;2023-02-04T11:46:50;101290.31;;;12.16;61.89
41202;BME280;26936;50.524;8.684;2023-02-04T11:49:18;101287.94;;;12.14;61.79
41202;BME280;26936;50.524;8.684;2023-02-04T11:51:44;101280.84;;;12.74;60.05
41202;BME280;26936;50.524;8.684;2023-02-04T11:54:12;101285.22;;;12.78;59.74
41202;BME280;26936;50.524;8.684;2023-02-04T11:56:40;101291.09;;;12.61;58.62
41202;BME280;26936;50.524;8.684;2023-02-04T11:59:08;101293.09;;;12.23;59.49
41202;BME280;26936;50.524;8.684;2023-02-04T12:01:35;101289.03;;;11.80;59.84
41202;BME280;26936;50.524;8.684;2023-02-04T12:04:03;101294.25;;;11.16;62.64
41202;BME280;26936;50.524;8.684;2023-02-04T12:06:31;101288.00;;;10.77;65.29
41202;BME280;26936;50.524;8.684;2023-02-04T12:09:22;101293.72;;;10.52;65.90
41202;BME280;26936;50.524;8.684;2023-02-04T12:11:52;101290.97;;;10.10;66.87
41202;BME280;26936;50.524;8.684;2023-02-04T12:14:18;101297.00;;;9.98;67.73
41202;BME280;26936;50.524;8.684;2023-02-04T12:16:45;101301.03;;;9.87;68.10
41202;BME280;26936;50.524;8.684;2023-02-04T12:19:12;101302.22;;;9.57;68.79
41202;BME280;26936;50.524;8.684;2023-02-04T12:21:37;101303.41;;;10.41;68.54
41202;BME280;26936;50.524;8.684;2023-02-04T12:24:03;101305.38;;;10.61;66.63
41202;BME280;26936;50.524;8.684;2023-02-04T12:26:28;101298.97;;;10.40;66.38
41202;BME280;26936;50.524;8.684;2023-02-04T12:28:53;101309.88;;;10.24;65.00
41202;BME280;26936;50.524;8.684;2023-02-04T12:31:19;101311.06;;;10.33;64.38
41202;BME280;26936;50.524;8.684;2023-02-04T12:33:44;101309.06;;;9.92;66.33
41202;BME280;26936;50.524;8.684;2023-02-04T12:36:10;101311.00;;;9.31;67.50
41202;BME280;26936;50.524;8.684;2023-02-04T12:38:35;101319.06;;;9.47;68.11
41202;BME280;26936;50.524;8.684;2023-02-04T12:41:01;101330.34;;;9.64;67.81
41202;BME280;26936;50.524;8.684;2023-02-04T12:43:26;101324.34;;;10.01;67.30
41202;BME280;26936;50.524;8.684;2023-02-04T12:45:51;101318.28;;;10.41;66.01
41202;BME280;26936;50.524;8.684;2023-02-04T12:48:16;101311.44;;;10.46;65.73
41202;BME280;26936;50.524;8.684;2023-02-04T12:50:42;101310.22;;;10.54;64.53
41202;BME280;26936;50.524;8.684;2023-02-04T12:53:07;101311.81;;;10.58;62.19
41202;BME280;26936;50.524;8.684;2023-02-04T12:55:32;101320.72;;;10.25;64.88
41202;BME280;26936;50.524;8.684;2023-02-04T12:57:58;101323.16;;;10.13;66.55
41202;BME280;26936;50.524;8.684;2023-02-04T13:00:23;101316.72;;;9.95;66.76
41202;BME280;26936;50.524;8.684;2023-02-04T13:02:49;101317.09;;;9.79;67.14
41202;BME280;26936;50.524;8.684;2023-02-04T13:05:15;101321.47;;;9.45;69.15
41202;BME280;26936;50.524;8.684;2023-02-04T13:07:41;101309.03;;;9.60;69.63
41202;BME280;26936;50.524;8.684;2023-02-04T13:10:09;101303.44;;;9.67;69.39
41202;BME280;26936;50.524;8.684;2023-02-04T13:12:35;101307.88;;;10.21;68.49
41202;BME280;26936;50.524;8.684;2023-02-04T13:15:00;101307.44;;;9.77;67.68